createdAt,value
2023-01-29T00:05:10.033Z,-0.48
2023-01-29T00:10:18.789Z,-0.57
2023-01-29T00:15:20.821Z,-0.58
2023-01-29T00:20:22.497Z,-0.44
2023-01-29T00:25:24.089Z,-0.38
2023-01-29T00:30:25.727Z,-0.40
2023-01-29T00:35:27.373Z,-0.43
2023-01-29T00:40:48.836Z,-0.51
2023-01-29T00:45:50.480Z,-0.49
2023-01-29T00:50:51.947Z,-0.51
2023-01-29T00:55:53.563Z,-0.58
2023-01-29T01:00:56.662Z,-0.63
2023-01-29T01:06:06.650Z,-0.70
2023-01-29T01:11:08.251Z,-0.73
2023-01-29T01:16:15.646Z,-0.67
2023-01-29T01:21:19.121Z,-0.64
2023-01-29T01:26:20.591Z,-0.63
2023-01-29T01:31:22.133Z,-0.69
2023-01-29T01:36:23.766Z,-0.71
2023-01-29T01:41:25.530Z,-0.78
2023-01-29T01:46:32.148Z,-0.79
2023-01-29T01:51:39.007Z,-0.83
2023-01-29T01:56:48.496Z,-0.84
2023-01-29T02:01:54.333Z,-0.87
2023-01-29T02:07:16.115Z,-0.86
2023-01-29T02:12:19.023Z,-0.87
2023-01-29T02:17:20.831Z,-0.87
2023-01-29T02:22:31.652Z,-0.89
2023-01-29T02:27:48.346Z,-0.90
2023-01-29T02:33:02.492Z,-0.92
2023-01-29T02:38:30.303Z,-0.92
2023-01-29T02:44:10.638Z,-0.96
2023-01-29T02:49:23.616Z,-0.98
2023-01-29T02:54:34.987Z,-1.00
2023-01-29T02:59:44.278Z,-1.07
2023-01-29T03:04:53.170Z,-1.09
2023-01-29T03:09:56.478Z,-1.10
2023-01-29T03:15:11.881Z,-1.10
2023-01-29T03:20:19.084Z,-1.10
2023-01-29T03:25:42.805Z,-1.10
2023-01-29T03:31:11.234Z,-1.10
2023-01-29T03:36:26.926Z,-1.10
2023-01-29T03:41:36.815Z,-1.09
2023-01-29T03:46:48.864Z,-1.08
2023-01-29T03:51:55.412Z,-1.09
2023-01-29T03:57:05.279Z,-1.11
2023-01-29T04:02:31.914Z,-1.12
2023-01-29T04:07:36.674Z,-1.14
2023-01-29T04:12:48.427Z,-1.13
2023-01-29T04:17:52.750Z,-1.14
2023-01-29T04:22:54.259Z,-1.14
2023-01-29T04:28:20.525Z,-1.11
2023-01-29T04:33:36.093Z,-1.12
2023-01-29T04:38:42.925Z,-1.13
2023-01-29T04:43:55.030Z,-1.18
2023-01-29T04:49:05.319Z,-1.13
2023-01-29T04:54:17.624Z,-0.96
2023-01-29T04:59:36.348Z,-0.85
2023-01-29T05:04:41.271Z,-0.84
2023-01-29T05:09:45.475Z,-0.88
2023-01-29T05:14:48.471Z,-0.91
2023-01-29T05:19:50.095Z,-0.96
2023-01-29T05:24:51.825Z,-0.98
2023-01-29T05:29:54.103Z,-1.00
2023-01-29T05:34:55.833Z,-1.02
2023-01-29T05:39:57.336Z,-1.03
2023-01-29T05:44:58.821Z,-1.03
2023-01-29T05:50:00.398Z,-1.06
2023-01-29T05:55:02.012Z,-1.09
2023-01-29T06:00:04.781Z,-1.12
2023-01-29T06:05:07.268Z,-1.13
2023-01-29T06:10:09.704Z,-1.12
2023-01-29T06:15:12.867Z,-1.10
2023-01-29T06:20:14.731Z,-1.09
2023-01-29T06:25:17.067Z,-1.09
2023-01-29T06:30:18.969Z,-1.09
2023-01-29T06:35:20.773Z,-0.94
2023-01-29T06:40:22.286Z,-0.79
2023-01-29T06:45:24.221Z,-0.73
2023-01-29T06:50:25.763Z,-0.69
2023-01-29T06:55:27.282Z,-0.66
2023-01-29T07:00:31.262Z,-0.64
2023-01-29T07:05:33.058Z,-0.65
2023-01-29T07:10:34.522Z,-0.62
2023-01-29T07:15:37.256Z,-0.54
2023-01-29T07:20:43.000Z,-0.51
2023-01-29T07:25:46.250Z,-0.50
2023-01-29T07:30:48.012Z,-0.48
2023-01-29T07:35:49.595Z,-0.47
2023-01-29T07:40:54.816Z,-0.43
2023-01-29T07:45:56.353Z,-0.41
2023-01-29T07:50:58.916Z,-0.42
2023-01-29T07:56:00.418Z,-0.42
2023-01-29T08:01:06.998Z,-0.39
2023-01-29T08:06:08.656Z,-0.22
2023-01-29T08:11:10.126Z,-0.05
2023-01-29T08:16:11.722Z,0.08
2023-01-29T08:21:14.100Z,0.19
2023-01-29T08:26:15.597Z,0.27
2023-01-29T08:31:20.561Z,0.23
2023-01-29T08:36:22.895Z,0.28
2023-01-29T08:41:24.443Z,0.25
2023-01-29T08:46:26.079Z,0.27
2023-01-29T08:51:28.135Z,0.26
2023-01-29T08:56:29.743Z,0.32
2023-01-29T09:01:31.718Z,0.50
2023-01-29T09:06:33.493Z,0.60
2023-01-29T09:11:34.976Z,0.68
2023-01-29T09:16:36.539Z,0.73
2023-01-29T09:21:38.159Z,0.68
2023-01-29T09:26:40.723Z,0.66
2023-01-29T09:31:42.363Z,0.67
2023-01-29T09:36:44.097Z,0.75
2023-01-29T09:42:03.987Z,0.86
2023-01-29T09:47:14.708Z,0.94
2023-01-29T09:52:25.581Z,1.06
2023-01-29T09:57:52.231Z,1.04
2023-01-29T10:03:36.072Z,1.04
2023-01-29T10:08:52.760Z,1.09
2023-01-29T10:14:13.744Z,1.17
2023-01-29T10:19:33.584Z,1.22
2023-01-29T10:24:52.919Z,1.30
2023-01-29T10:29:55.826Z,1.50
2023-01-29T10:35:13.831Z,1.68
2023-01-29T10:40:28.576Z,1.76
2023-01-29T10:45:55.824Z,1.72
2023-01-29T10:51:05.998Z,1.68
2023-01-29T10:56:23.028Z,1.66
2023-01-29T11:01:26.922Z,1.66
2023-01-29T11:06:36.346Z,1.71
2023-01-29T11:11:43.219Z,1.85
2023-01-29T11:16:47.518Z,1.92
2023-01-29T11:21:56.383Z,1.93
2023-01-29T11:26:59.903Z,1.94
2023-01-29T11:32:06.384Z,1.87
2023-01-29T11:37:16.959Z,1.77
2023-01-29T11:42:23.348Z,1.78
2023-01-29T11:47:31.050Z,1.87
2023-01-29T11:52:39.287Z,1.97
2023-01-29T11:57:43.428Z,2.23
2023-01-29T12:02:46.101Z,2.39
2023-01-29T12:07:50.574Z,2.34
2023-01-29T12:12:52.103Z,2.38
2023-01-29T12:18:31.206Z,2.32
2023-01-29T12:24:01.935Z,2.13
2023-01-29T12:29:13.946Z,2.04
2023-01-29T12:34:46.405Z,1.98
2023-01-29T12:39:49.615Z,1.89
2023-01-29T12:45:03.169Z,1.85
2023-01-29T12:50:27.292Z,1.74
2023-01-29T12:55:41.739Z,1.67
2023-01-29T13:00:50.940Z,1.74
2023-01-29T13:06:13.763Z,1.77
2023-01-29T13:11:41.012Z,1.72
2023-01-29T13:16:46.765Z,1.66
2023-01-29T13:21:48.914Z,1.62
2023-01-29T13:26:50.846Z,1.52
2023-01-29T13:31:55.012Z,1.43
2023-01-29T13:37:00.829Z,1.34
2023-01-29T13:42:16.419Z,1.28
2023-01-29T13:47:28.747Z,1.36
2023-01-29T13:52:40.981Z,1.41
2023-01-29T13:57:46.309Z,1.31
2023-01-29T14:03:13.781Z,1.24
2023-01-29T14:08:15.259Z,1.17
2023-01-29T14:13:19.768Z,1.09
2023-01-29T14:18:23.989Z,1.13
2023-01-29T14:23:36.102Z,1.17
2023-01-29T14:28:37.626Z,1.08
2023-01-29T14:33:43.379Z,1.05
2023-01-29T14:38:51.070Z,1.04
2023-01-29T14:44:32.725Z,1.09
2023-01-29T14:49:57.822Z,1.19
2023-01-29T14:55:03.313Z,1.17
2023-01-29T15:00:27.275Z,1.06
2023-01-29T15:05:32.629Z,0.98
2023-01-29T15:10:35.779Z,0.87
2023-01-29T15:16:02.770Z,0.88
2023-01-29T15:21:15.231Z,0.83
2023-01-29T15:26:24.750Z,0.82
2023-01-29T15:31:28.962Z,0.73
2023-01-29T15:36:32.277Z,0.76
2023-01-29T15:41:33.848Z,0.80
2023-01-29T15:46:41.799Z,0.76
2023-01-29T15:51:43.758Z,0.67
2023-01-29T15:56:50.476Z,0.61
2023-01-29T16:01:53.076Z,0.69
2023-01-29T16:06:57.124Z,0.77
2023-01-29T16:11:59.340Z,0.77
2023-01-29T16:17:21.464Z,0.72
2023-01-29T16:22:23.092Z,0.62
2023-01-29T16:27:26.210Z,0.64
2023-01-29T16:32:29.835Z,0.72
2023-01-29T16:37:35.878Z,0.66
2023-01-29T16:42:38.604Z,0.66
2023-01-29T16:47:43.491Z,0.67
2023-01-29T16:53:18.453Z,0.73
2023-01-29T16:58:22.996Z,0.71
2023-01-29T17:03:26.960Z,0.67
2023-01-29T17:08:34.390Z,0.74
2023-01-29T17:13:42.980Z,0.80
2023-01-29T17:18:44.540Z,0.77
2023-01-29T17:23:46.399Z,0.73
2023-01-29T17:28:51.971Z,0.76
2023-01-29T17:33:53.499Z,0.76
2023-01-29T17:38:54.955Z,0.70
2023-01-29T17:43:57.390Z,0.68
2023-01-29T17:48:58.926Z,0.74
2023-01-29T17:54:03.159Z,0.69
2023-01-29T17:59:14.253Z,0.64
2023-01-29T18:04:16.613Z,0.57
2023-01-29T18:09:23.152Z,0.55
2023-01-29T18:14:24.725Z,0.64
2023-01-29T18:19:31.135Z,0.61
2023-01-29T18:24:34.073Z,0.56
2023-01-29T18:29:35.675Z,0.51
2023-01-29T18:34:37.440Z,0.57
2023-01-29T18:39:38.952Z,0.58
2023-01-29T18:44:40.955Z,0.56
2023-01-29T18:49:42.415Z,0.47
2023-01-29T18:54:44.348Z,0.43
2023-01-29T18:59:47.614Z,0.56
2023-01-29T19:04:49.368Z,0.65
2023-01-29T19:09:50.891Z,0.61
2023-01-29T19:14:52.420Z,0.54
2023-01-29T19:20:01.954Z,0.58
2023-01-29T19:25:04.082Z,0.65
2023-01-29T19:30:06.697Z,0.61
2023-01-29T19:35:08.489Z,0.57
2023-01-29T19:40:10.803Z,0.52
2023-01-29T19:45:12.369Z,0.57
2023-01-29T19:50:13.880Z,0.59
2023-01-29T19:55:16.093Z,0.59
2023-01-29T20:00:19.634Z,0.55
2023-01-29T20:05:21.718Z,0.53
2023-01-29T20:10:23.383Z,0.60
2023-01-29T20:15:25.035Z,0.71
2023-01-29T20:20:32.849Z,0.68
2023-01-29T20:25:37.510Z,0.64
2023-01-29T20:30:40.277Z,0.53
2023-01-29T20:35:41.989Z,0.60
2023-01-29T20:40:43.519Z,0.62
2023-01-29T20:45:45.087Z,0.59
2023-01-29T20:50:46.665Z,0.52
2023-01-29T20:55:48.228Z,0.57
2023-01-29T21:00:49.987Z,0.61
2023-01-29T21:05:52.365Z,0.57
2023-01-29T21:10:53.972Z,0.51
2023-01-29T21:15:55.668Z,0.45
2023-01-29T21:20:57.209Z,0.55
2023-01-29T21:26:06.247Z,0.59
2023-01-29T21:31:10.596Z,0.54
2023-01-29T21:36:12.164Z,0.47
2023-01-29T21:41:13.714Z,0.47
2023-01-29T21:46:16.184Z,0.56
2023-01-29T21:51:18.961Z,0.56
2023-01-29T21:56:20.640Z,0.51
2023-01-29T22:01:37.498Z,0.48
2023-01-29T22:06:40.076Z,0.56
2023-01-29T22:11:41.788Z,0.62
2023-01-29T22:16:43.302Z,0.61
2023-01-29T22:21:45.020Z,0.52
2023-01-29T22:26:48.499Z,0.56
2023-01-29T22:31:50.851Z,0.60
2023-01-29T22:36:52.814Z,0.56
2023-01-29T22:41:54.453Z,0.52
2023-01-29T22:46:56.027Z,0.59
2023-01-29T22:52:15.197Z,0.68
2023-01-29T22:57:16.776Z,0.69
2023-01-29T23:02:18.313Z,0.66
2023-01-29T23:07:19.910Z,0.74
2023-01-29T23:12:21.399Z,0.80
2023-01-29T23:17:23.120Z,0.80
2023-01-29T23:22:24.659Z,0.73
2023-01-29T23:27:26.133Z,0.78
2023-01-29T23:32:27.629Z,0.83
2023-01-29T23:37:29.110Z,0.81
2023-01-29T23:42:30.606Z,0.78
2023-01-29T23:47:32.064Z,0.82
2023-01-29T23:52:34.196Z,0.89
2023-01-29T23:57:35.672Z,0.91
